Aérodrome :
LOGIN :

S'inscrire | Disclaimer

   EN    FR    IT 

 










Légende :    VFR   VFR Marginal   IFR   IFR Intensif   IFR Très Intensif
Visi : 
Plafond : 
>= 8 km
>= 3000ft
5 à 8 km
1000 à 3000 ft
1500m à 5 km
500 à 1000 ft
800 à 1500m
200 à 500 ft
< 800m
< 200 ft
Symboles :   Orages  Brouillard  Fortes neiges  Fortes précipitations  Vent > 20 kt
SIGMETs :   Divers  Orages  Givrage  Turbulence  Onde Orograph.  Cendres Volcan.







- Altitude de l'aérodrome : 209 ft
- Code IATA : CLY
- Voir les cartes d'approche


LFKC - Calvi

DERNIER METAR :
  • 140800Z AUTO 20015KT 9999 BKN027 BKN046 BKN072 14/10 Q1013 TEMPO 20020G40KT 4000 RA BKN014 OVC040

METARs EXPIRÉS :
  • 140730Z AUTO 20015G26KT 9999 -RA BKN030 BKN044 BKN064 13/10 Q1013 TEMPO 20020G40KT 4000 RA BKN014 OVC040
  • 140700Z AUTO 20017G29KT 9999 -RA BKN028 BKN033 BKN047 14/09 Q1013 TEMPO 20020G40KT 4000 RA BKN014 OVC040
  • 140630Z AUTO 20016KT 180V240 9999 FEW029 BKN034 BKN043 14/09 Q1013 TEMPO 20020G40KT 4000 RA BKN014 OVC040
  • 140600Z AUTO 19019KT 9999 SCT029 BKN035 BKN060 14/09 Q1012 TEMPO 20020G40KT 4000 RA BKN014 OVC040
  • 140530Z AUTO 20018G31KT 9999 BKN028 BKN034 BKN044 14/09 Q1012 TEMPO 4000 RA BKN014 OVC040

TAF AMD TAF LFKC
Valide du 14 à 03h jusqu'au 15 à 03h UTC


140247Z 1403/1503 20015G30KT 9999 SCT035 BKN050
TEMPO 1403/1409 4000 RA BKN014 OVC040
TEMPO 1403/1418 20020G40KT
TEMPO 1500/1503 20020G40KT TX16/1413Z TN11/1404Z
ATIS : +33 4 95 65 82 49
Pas de NOTAMs connus pour ce terrain.
2 SIGMETs publiés pour la FIR Marseille (LFMM) :
 
Turbulence forte
LFMM SIGMET 3 VALID 140600/141000 LFPW
LFMM MARSEILLE FIR/UIR SEV TURB FCST WI N4345 E00730 - N4315 E00945 - N4115 E00945 - N4115 E00845 - N4230 E00830 - N4330 E00645 - N4345 E00730 SFC/FL070 STNR INTSF=
Onde orographique forte
LFMM SIGMET 2 VALID 140600/140900 LFPW
LFMM MARSEILLE FIR/UIR SEV MTW FCST E OF E00900 SFC/FL320 STNR NC=



MET'MAP, la Météo Aéronautique d'un coup d'oeil ! - Copyright ORBIFLY Décembre 2007 - Disclaimer

ORBIFLY MET'MAP TEAM :

Programmation & Développement : Alexandra Zaïnal
Conception & Développement : Baudouin d'Aumeries
Co-Programmation & Développement : Marc-Olivier Méhu
Soutien technique & logistique : Manuel Goepfert

Contact : metmap@orbifly.com




SOURCES & CREDITS :

   NOAA